ArgentinaFixed distance
Tandil Ultra Trail
11 Aug2024
Distance
45km
Finishers
8971 men18 women
Winning time
3:42:25h
Median pace
8.29km/h
Pace distribution
89 finishers · 5.50–12.14 km/h · mean 8.59
Every finisher ran the same 45 km course, so these paces are directly comparable.
Histogram of finisher pace. 89 finishers ranged from 5.50 to 12.14 kilometres per hour, with a mean of 8.59 and a median of 8.29. The busiest band is 7.5 to 8.0 kilometres per hour, with 19 finishers.
Results
Ranks 51–89 of 89
| Rank | Runner | Time | Pace | Cat. | Placing |
|---|---|---|---|---|---|
| 51 | Rift | 5:33:15h | 8.10 | M45 | 47th M · 11th M45 |
| 52 | Team General Belgrano | 5:33:32h | 8.10 | W40 | 5th F · 1st W40 |
| 53 | Diego Simon Trail Run | 5:33:54h | 8.09 | W35 | 6th F · 2nd W35 |
| 54 | Kumelen Running | 5:33:59h | 8.08 | W35 | 7th F · 3rd W35 |
| 55 | Diego Simon Trail Run | 5:34:45h | 8.07 | M50 | 48th M · 3rd M50 |
| 56 | Ensalud | 5:35:30h | 8.05 | M40 | 49th M · 12th M40 |
| 57 | Jota Running | 5:37:44h | 7.99 | W50 | 8th F · 1st W50 |
| 58 | Diego Simon Trail Run | 5:38:18h | 7.98 | M60 | 50th M · 2nd M60 |
| 59 | Diego Simon Trail Run | 5:39:23h | 7.96 | W50 | 9th F · 2nd W50 |
| 60 | Libre | 5:40:38h | 7.93 | M45 | 51st M · 12th M45 |
| 61 | Mantra Sport | 5:40:39h | 7.93 | M45 | 52nd M · 13th M45 |
| 62 | Libre | 5:42:00h | 7.89 | W50 | 10th F · 3rd W50 |
| 63 | O2 Link | 5:42:11h | 7.89 | M55 | 53rd M · 4th M55 |
| 64 | Libre | 5:42:12h | 7.89 | M55 | 54th M · 5th M55 |
| 65 | Libre | 5:43:41h | 7.86 | M55 | 55th M · 6th M55 |
| 66 | HR Entrenamiento | 5:47:16h | 7.78 | M60 | 56th M · 3rd M60 |
| 67 | IRU Deportes | 5:49:20h | 7.73 | W40 | 11th F · 2nd W40 |
| 68 | Pauluzak Trail Running... | 5:49:39h | 7.72 | M40 | 57th M · 13th M40 |
| 69 | Diego Simon Trail Run | 5:49:56h | 7.72 | W45 | 12th F · 1st W45 |
| 70 | Libre | 5:50:24h | 7.71 | W50 | 13th F · 4th W50 |
| 71 | Metodo Running Laprida | 5:51:57h | 7.67 | W23 | 14th F · 4th W23 |
| 72 | Mantra Sport | 5:57:29h | 7.55 | M45 | 58th M · 14th M45 |
| 73 | Libre | 5:57:35h | 7.55 | M45 | 59th M · 15th M45 |
| 74 | Gustatrail | 5:58:56h | 7.52 | W55 | 15th F · 1st W55 |
| 75 | Kuden Group Tandil | 5:59:46h | 7.50 | M55 | 60th M · 7th M55 |
| 76 | Libre | 6:01:53h | 7.46 | M45 | 61st M · 16th M45 |
| 77 | Tandil Sport | 6:04:18h | 7.41 | M45 | 62nd M · 17th M45 |
| 78 | Corre POR TuS Sueños | 6:04:37h | 7.41 | W45 | 16th F · 2nd W45 |
| 79 | Diego Simon Trail Run | 6:09:12h | 7.31 | M55 | 63rd M · 8th M55 |
| 80 | Libre | 6:10:00h | 7.30 | M50 | 64th M · 4th M50 |
| 81 | GET FIT Mercedes | 6:10:19h | 7.29 | M35 | 65th M · 10th M35 |
| 82 | Libre | 6:10:35h | 7.29 | W45 | 17th F · 3rd W45 |
| 83 | Libre | 6:13:24h | 7.23 | M50 | 66th M · 5th M50 |
| 84 | Diego Simon Trail Run | 7:33:22h | 5.96 | M60 | 67th M · 4th M60 |
| 85 | Diego Simon Trail Run | 7:34:45h | 5.94 | W55 | 18th F · 2nd W55 |
| 86 | Activo Entrena | 7:44:36h | 5.81 | M40 | 68th M · 14th M40 |
| 87 | AZ Team Amigos & Running | 7:45:49h | 5.80 | M50 | 69th M · 6th M50 |
| 88 | Libre | 8:05:40h | 5.56 | M35 | 70th M · 11th M35 |
| 89 | Libre | 8:11:17h | 5.50 | M55 | 71st M · 9th M55 |
- 51Rift47th M · 11th M45Time5:33:15hPace8.10Cat.M45
- 52Team General Belgrano5th F · 1st W40Time5:33:32hPace8.10Cat.W40
- 53Diego Simon Trail Run6th F · 2nd W35Time5:33:54hPace8.09Cat.W35
- 54Kumelen Running7th F · 3rd W35Time5:33:59hPace8.08Cat.W35
- 55Diego Simon Trail Run48th M · 3rd M50Time5:34:45hPace8.07Cat.M50
- 56Ensalud49th M · 12th M40Time5:35:30hPace8.05Cat.M40
- 57Jota Running8th F · 1st W50Time5:37:44hPace7.99Cat.W50
- 58Diego Simon Trail Run50th M · 2nd M60Time5:38:18hPace7.98Cat.M60
- 59Diego Simon Trail Run9th F · 2nd W50Time5:39:23hPace7.96Cat.W50
- 60Libre51st M · 12th M45Time5:40:38hPace7.93Cat.M45
- 61Mantra Sport52nd M · 13th M45Time5:40:39hPace7.93Cat.M45
- 62Libre10th F · 3rd W50Time5:42:00hPace7.89Cat.W50
- 63O2 Link53rd M · 4th M55Time5:42:11hPace7.89Cat.M55
- 64Libre54th M · 5th M55Time5:42:12hPace7.89Cat.M55
- 65Libre55th M · 6th M55Time5:43:41hPace7.86Cat.M55
- 66HR Entrenamiento56th M · 3rd M60Time5:47:16hPace7.78Cat.M60
- 67IRU Deportes11th F · 2nd W40Time5:49:20hPace7.73Cat.W40
- 68Pauluzak Trail Running...57th M · 13th M40Time5:49:39hPace7.72Cat.M40
- 69Diego Simon Trail Run12th F · 1st W45Time5:49:56hPace7.72Cat.W45
- 70Libre13th F · 4th W50Time5:50:24hPace7.71Cat.W50
- 71Metodo Running Laprida14th F · 4th W23Time5:51:57hPace7.67Cat.W23
- 72Mantra Sport58th M · 14th M45Time5:57:29hPace7.55Cat.M45
- 73Libre59th M · 15th M45Time5:57:35hPace7.55Cat.M45
- 74Gustatrail15th F · 1st W55Time5:58:56hPace7.52Cat.W55
- 75Kuden Group Tandil60th M · 7th M55Time5:59:46hPace7.50Cat.M55
- 76Libre61st M · 16th M45Time6:01:53hPace7.46Cat.M45
- 77Tandil Sport62nd M · 17th M45Time6:04:18hPace7.41Cat.M45
- 78Corre POR TuS Sueños16th F · 2nd W45Time6:04:37hPace7.41Cat.W45
- 79Diego Simon Trail Run63rd M · 8th M55Time6:09:12hPace7.31Cat.M55
- 80Libre64th M · 4th M50Time6:10:00hPace7.30Cat.M50
- 81GET FIT Mercedes65th M · 10th M35Time6:10:19hPace7.29Cat.M35
- 82Libre17th F · 3rd W45Time6:10:35hPace7.29Cat.W45
- 83Libre66th M · 5th M50Time6:13:24hPace7.23Cat.M50
- 84Diego Simon Trail Run67th M · 4th M60Time7:33:22hPace5.96Cat.M60
- 85Diego Simon Trail Run18th F · 2nd W55Time7:34:45hPace5.94Cat.W55
- 86Activo Entrena68th M · 14th M40Time7:44:36hPace5.81Cat.M40
- 87AZ Team Amigos & Running69th M · 6th M50Time7:45:49hPace5.80Cat.M50
- 88Libre70th M · 11th M35Time8:05:40hPace5.56Cat.M35
- 89Libre71st M · 9th M55Time8:11:17hPace5.50Cat.M55
Showing ranks 51–89 of 89